sensor_id;sensor_type;location;lat;lon;timestamp;temperature;humidity
4487;DHT22;2256;48.740;9.106;2022-08-19T00:01:16;20.50;99.90
4487;DHT22;2256;48.740;9.106;2022-08-19T00:03:43;20.40;99.90
4487;DHT22;2256;48.740;9.106;2022-08-19T00:06:10;20.40;99.90
4487;DHT22;2256;48.740;9.106;2022-08-19T00:08:39;20.30;99.90
4487;DHT22;2256;48.740;9.106;2022-08-19T00:11:06;20.40;99.90
4487;DHT22;2256;48.740;9.106;2022-08-19T00:13:33;20.40;99.90
4487;DHT22;2256;48.740;9.106;2022-08-19T00:16:00;20.30;99.90
4487;DHT22;2256;48.740;9.106;2022-08-19T00:18:27;20.20;99.90
4487;DHT22;2256;48.740;9.106;2022-08-19T00:20:54;20.10;99.90
4487;DHT22;2256;48.740;9.106;2022-08-19T00:23:21;20.20;99.90
4487;DHT22;2256;48.740;9.106;2022-08-19T00:25:49;20.20;99.90
4487;DHT22;2256;48.740;9.106;2022-08-19T00:28:17;20.30;99.90
4487;DHT22;2256;48.740;9.106;2022-08-19T00:30:44;20.20;99.90
4487;DHT22;2256;48.740;9.106;2022-08-19T00:33:11;20.20;99.90
4487;DHT22;2256;48.740;9.106;2022-08-19T00:35:39;20.20;99.90
4487;DHT22;2256;48.740;9.106;2022-08-19T00:38:05;20.20;99.90
4487;DHT22;2256;48.740;9.106;2022-08-19T00:40:33;20.20;99.90
4487;DHT22;2256;48.740;9.106;2022-08-19T00:43:01;20.30;99.90
4487;DHT22;2256;48.740;9.106;2022-08-19T00:45:33;20.20;99.90
4487;DHT22;2256;48.740;9.106;2022-08-19T00:48:01;20.20;99.90
4487;DHT22;2256;48.740;9.106;2022-08-19T00:50:32;20.10;99.90
4487;DHT22;2256;48.740;9.106;2022-08-19T00:52:59;20.20;99.90
4487;DHT22;2256;48.740;9.106;2022-08-19T00:55:31;20.20;99.90
4487;DHT22;2256;48.740;9.106;2022-08-19T00:58:05;20.20;99.90
4487;DHT22;2256;48.740;9.106;2022-08-19T01:00:34;20.20;99.90
4487;DHT22;2256;48.740;9.106;2022-08-19T01:03:03;20.10;99.90
4487;DHT22;2256;48.740;9.106;2022-08-19T01:05:30;20.10;99.90
4487;DHT22;2256;48.740;9.106;2022-08-19T01:07:59;20.10;99.90
4487;DHT22;2256;48.740;9.106;2022-08-19T01:10:29;20.10;99.90
4487;DHT22;2256;48.740;9.106;2022-08-19T01:12:58;20.10;99.90
4487;DHT22;2256;48.740;9.106;2022-08-19T01:15:32;20.10;99.90
4487;DHT22;2256;48.740;9.106;2022-08-19T01:18:02;20.10;99.90
4487;DHT22;2256;48.740;9.106;2022-08-19T01:20:30;20.10;99.90
4487;DHT22;2256;48.740;9.106;2022-08-19T01:23:01;20.00;99.90
4487;DHT22;2256;48.740;9.106;2022-08-19T01:25:31;20.00;99.90
4487;DHT22;2256;48.740;9.106;2022-08-19T01:27:58;20.00;99.90
4487;DHT22;2256;48.740;9.106;2022-08-19T01:30:28;20.00;99.90
4487;DHT22;2256;48.740;9.106;2022-08-19T01:32:56;20.00;99.90
4487;DHT22;2256;48.740;9.106;2022-08-19T01:35:26;19.80;99.90
4487;DHT22;2256;48.740;9.106;2022-08-19T01:37:56;19.90;99.90
4487;DHT22;2256;48.740;9.106;2022-08-19T01:40:27;19.90;99.90
4487;DHT22;2256;48.740;9.106;2022-08-19T01:42:55;19.80;99.90
4487;DHT22;2256;48.740;9.106;2022-08-19T01:45:24;19.80;99.90
4487;DHT22;2256;48.740;9.106;2022-08-19T01:47:52;19.80;99.90
4487;DHT22;2256;48.740;9.106;2022-08-19T01:50:19;19.80;99.90
4487;DHT22;2256;48.740;9.106;2022-08-19T01:52:45;19.80;99.90
4487;DHT22;2256;48.740;9.106;2022-08-19T01:55:15;19.70;99.90
4487;DHT22;2256;48.740;9.106;2022-08-19T01:57:47;19.80;99.90
4487;DHT22;2256;48.740;9.106;2022-08-19T02:00:20;19.80;99.90
4487;DHT22;2256;48.740;9.106;2022-08-19T02:02:48;19.80;99.90
4487;DHT22;2256;48.740;9.106;2022-08-19T02:05:15;19.80;99.90
4487;DHT22;2256;48.740;9.106;2022-08-19T02:07:43;19.70;99.90
4487;DHT22;2256;48.740;9.106;2022-08-19T02:10:13;19.80;99.90
4487;DHT22;2256;48.740;9.106;2022-08-19T02:12:40;19.70;99.90
4487;DHT22;2256;48.740;9.106;2022-08-19T02:15:09;19.70;99.90
4487;DHT22;2256;48.740;9.106;2022-08-19T02:17:36;19.60;99.90
4487;DHT22;2256;48.740;9.106;2022-08-19T02:20:04;19.70;99.90
4487;DHT22;2256;48.740;9.106;2022-08-19T02:22:31;19.60;99.90
4487;DHT22;2256;48.740;9.106;2022-08-19T02:24:58;19.60;99.90
4487;DHT22;2256;48.740;9.106;2022-08-19T02:27:25;19.60;99.90
4487;DHT22;2256;48.740;9.106;2022-08-19T02:29:52;19.60;99.90
4487;DHT22;2256;48.740;9.106;2022-08-19T02:32:20;19.70;99.90
4487;DHT22;2256;48.740;9.106;2022-08-19T02:34:47;19.60;99.90
4487;DHT22;2256;48.740;9.106;2022-08-19T02:37:14;19.60;99.90
4487;DHT22;2256;48.740;9.106;2022-08-19T02:39:55;19.60;99.90
4487;DHT22;2256;48.740;9.106;2022-08-19T02:42:22;19.60;99.90
4487;DHT22;2256;48.740;9.106;2022-08-19T02:44:49;19.50;99.90
4487;DHT22;2256;48.740;9.106;2022-08-19T02:47:18;19.60;99.90
4487;DHT22;2256;48.740;9.106;2022-08-19T02:49:46;19.60;99.90
4487;DHT22;2256;48.740;9.106;2022-08-19T02:52:14;19.50;99.90
4487;DHT22;2256;48.740;9.106;2022-08-19T02:54:41;19.50;99.90
4487;DHT22;2256;48.740;9.106;2022-08-19T02:57:07;19.50;99.90
4487;DHT22;2256;48.740;9.106;2022-08-19T02:59:34;19.50;99.90
4487;DHT22;2256;48.740;9.106;2022-08-19T03:02:01;19.40;99.90
4487;DHT22;2256;48.740;9.106;2022-08-19T03:04:28;19.40;99.90
4487;DHT22;2256;48.740;9.106;2022-08-19T03:06:56;19.40;99.90
4487;DHT22;2256;48.740;9.106;2022-08-19T03:09:23;19.40;99.90
4487;DHT22;2256;48.740;9.106;2022-08-19T03:11:50;19.40;99.90
4487;DHT22;2256;48.740;9.106;2022-08-19T03:14:16;19.30;99.90
4487;DHT22;2256;48.740;9.106;2022-08-19T03:16:47;19.30;99.90
4487;DHT22;2256;48.740;9.106;2022-08-19T03:19:16;19.30;99.90
4487;DHT22;2256;48.740;9.106;2022-08-19T03:21:44;19.30;99.90
4487;DHT22;2256;48.740;9.106;2022-08-19T03:24:14;19.30;99.90
4487;DHT22;2256;48.740;9.106;2022-08-19T03:26:42;19.30;99.90
4487;DHT22;2256;48.740;9.106;2022-08-19T03:29:10;19.30;99.90
4487;DHT22;2256;48.740;9.106;2022-08-19T03:31:37;19.20;99.90
4487;DHT22;2256;48.740;9.106;2022-08-19T03:34:05;19.30;99.90
4487;DHT22;2256;48.740;9.106;2022-08-19T03:36:32;19.30;99.90
4487;DHT22;2256;48.740;9.106;2022-08-19T03:39:00;19.30;99.90
4487;DHT22;2256;48.740;9.106;2022-08-19T03:41:31;19.30;99.90
4487;DHT22;2256;48.740;9.106;2022-08-19T03:43:59;19.20;99.90
4487;DHT22;2256;48.740;9.106;2022-08-19T03:46:28;19.30;99.90
4487;DHT22;2256;48.740;9.106;2022-08-19T03:48:56;19.20;99.90
4487;DHT22;2256;48.740;9.106;2022-08-19T03:51:26;19.20;99.90
4487;DHT22;2256;48.740;9.106;2022-08-19T03:53:54;19.20;99.90
4487;DHT22;2256;48.740;9.106;2022-08-19T03:56:21;19.10;99.90
4487;DHT22;2256;48.740;9.106;2022-08-19T03:58:52;19.10;99.90
4487;DHT22;2256;48.740;9.106;2022-08-19T04:01:21;19.00;99.90
4487;DHT22;2256;48.740;9.106;2022-08-19T04:03:48;19.00;99.90
4487;DHT22;2256;48.740;9.106;2022-08-19T04:06:17;19.00;99.90
4487;DHT22;2256;48.740;9.106;2022-08-19T04:08:46;19.10;99.90
4487;DHT22;2256;48.740;9.106;2022-08-19T04:11:15;19.00;99.90
4487;DHT22;2256;48.740;9.106;2022-08-19T04:13:42;19.00;99.90
4487;DHT22;2256;48.740;9.106;2022-08-19T04:16:11;19.10;99.90
4487;DHT22;2256;48.740;9.106;2022-08-19T04:18:38;19.00;99.90
4487;DHT22;2256;48.740;9.106;2022-08-19T04:21:07;19.10;99.90
4487;DHT22;2256;48.740;9.106;2022-08-19T04:23:35;19.10;99.90
4487;DHT22;2256;48.740;9.106;2022-08-19T04:26:02;19.10;99.90
4487;DHT22;2256;48.740;9.106;2022-08-19T04:28:29;19.10;99.90
4487;DHT22;2256;48.740;9.106;2022-08-19T04:30:56;19.10;99.90
4487;DHT22;2256;48.740;9.106;2022-08-19T04:33:25;19.10;99.90
4487;DHT22;2256;48.740;9.106;2022-08-19T04:35:53;19.00;99.90
4487;DHT22;2256;48.740;9.106;2022-08-19T04:38:22;19.00;99.90
4487;DHT22;2256;48.740;9.106;2022-08-19T04:40:50;19.00;99.90
4487;DHT22;2256;48.740;9.106;2022-08-19T04:43:37;19.00;99.90
4487;DHT22;2256;48.740;9.106;2022-08-19T04:46:05;19.10;99.90
4487;DHT22;2256;48.740;9.106;2022-08-19T04:48:34;19.10;99.90
4487;DHT22;2256;48.740;9.106;2022-08-19T04:51:06;19.10;99.90
4487;DHT22;2256;48.740;9.106;2022-08-19T04:53:35;19.10;99.90
4487;DHT22;2256;48.740;9.106;2022-08-19T04:56:05;19.10;99.90
4487;DHT22;2256;48.740;9.106;2022-08-19T04:58:33;19.10;99.90
4487;DHT22;2256;48.740;9.106;2022-08-19T05:01:00;19.10;99.90
4487;DHT22;2256;48.740;9.106;2022-08-19T05:03:27;19.20;99.90
4487;DHT22;2256;48.740;9.106;2022-08-19T05:06:04;19.20;99.90
4487;DHT22;2256;48.740;9.106;2022-08-19T05:08:34;19.10;99.90
4487;DHT22;2256;48.740;9.106;2022-08-19T05:11:01;19.10;99.90
4487;DHT22;2256;48.740;9.106;2022-08-19T05:13:28;19.20;99.90
4487;DHT22;2256;48.740;9.106;2022-08-19T05:15:56;19.10;99.90
4487;DHT22;2256;48.740;9.106;2022-08-19T05:18:23;19.20;99.90
4487;DHT22;2256;48.740;9.106;2022-08-19T05:21:09;19.20;99.90
4487;DHT22;2256;48.740;9.106;2022-08-19T05:23:53;19.20;99.90
4487;DHT22;2256;48.740;9.106;2022-08-19T05:26:20;19.20;99.90
4487;DHT22;2256;48.740;9.106;2022-08-19T05:28:46;19.30;99.90
4487;DHT22;2256;48.740;9.106;2022-08-19T05:31:13;19.30;99.90
4487;DHT22;2256;48.740;9.106;2022-08-19T05:33:40;19.30;99.90
4487;DHT22;2256;48.740;9.106;2022-08-19T05:36:08;19.30;99.90
4487;DHT22;2256;48.740;9.106;2022-08-19T05:38:35;19.30;99.90
4487;DHT22;2256;48.740;9.106;2022-08-19T05:41:07;19.40;99.90
4487;DHT22;2256;48.740;9.106;2022-08-19T05:43:34;19.40;99.90
4487;DHT22;2256;48.740;9.106;2022-08-19T05:46:00;19.40;99.90
4487;DHT22;2256;48.740;9.106;2022-08-19T05:48:27;19.40;99.90
4487;DHT22;2256;48.740;9.106;2022-08-19T05:50:54;19.40;99.90
4487;DHT22;2256;48.740;9.106;2022-08-19T05:53:23;19.30;99.90
4487;DHT22;2256;48.740;9.106;2022-08-19T05:55:50;19.40;99.90
4487;DHT22;2256;48.740;9.106;2022-08-19T05:58:17;19.30;99.90
4487;DHT22;2256;48.740;9.106;2022-08-19T06:00:43;19.30;99.90
4487;DHT22;2256;48.740;9.106;2022-08-19T06:03:10;19.30;99.90
4487;DHT22;2256;48.740;9.106;2022-08-19T06:05:37;19.30;99.90
4487;DHT22;2256;48.740;9.106;2022-08-19T06:08:04;19.20;99.90
4487;DHT22;2256;48.740;9.106;2022-08-19T06:10:34;19.20;99.90
4487;DHT22;2256;48.740;9.106;2022-08-19T06:13:01;19.30;99.90
4487;DHT22;2256;48.740;9.106;2022-08-19T06:15:28;19.30;99.90
4487;DHT22;2256;48.740;9.106;2022-08-19T06:17:54;19.30;99.90
4487;DHT22;2256;48.740;9.106;2022-08-19T06:20:21;19.30;99.90
4487;DHT22;2256;48.740;9.106;2022-08-19T06:22:48;19.30;99.90
4487;DHT22;2256;48.740;9.106;2022-08-19T06:25:17;19.40;99.90
4487;DHT22;2256;48.740;9.106;2022-08-19T06:27:45;19.30;99.90
4487;DHT22;2256;48.740;9.106;2022-08-19T06:30:12;19.30;99.90
4487;DHT22;2256;48.740;9.106;2022-08-19T06:32:40;19.30;99.90
4487;DHT22;2256;48.740;9.106;2022-08-19T06:35:07;19.40;99.90
4487;DHT22;2256;48.740;9.106;2022-08-19T06:37:34;19.40;99.90
4487;DHT22;2256;48.740;9.106;2022-08-19T06:40:03;19.50;99.90
4487;DHT22;2256;48.740;9.106;2022-08-19T06:42:30;19.50;99.90
4487;DHT22;2256;48.740;9.106;2022-08-19T06:45:00;19.60;99.90
4487;DHT22;2256;48.740;9.106;2022-08-19T06:47:29;19.50;99.90
4487;DHT22;2256;48.740;9.106;2022-08-19T06:49:57;19.50;99.90
4487;DHT22;2256;48.740;9.106;2022-08-19T06:52:27;19.50;99.90
4487;DHT22;2256;48.740;9.106;2022-08-19T06:54:54;19.50;99.90
4487;DHT22;2256;48.740;9.106;2022-08-19T06:57:22;19.50;99.90
4487;DHT22;2256;48.740;9.106;2022-08-19T06:59:49;19.60;99.90
4487;DHT22;2256;48.740;9.106;2022-08-19T07:02:18;19.60;99.90
4487;DHT22;2256;48.740;9.106;2022-08-19T07:04:45;19.70;99.90
4487;DHT22;2256;48.740;9.106;2022-08-19T07:07:14;19.60;99.90
4487;DHT22;2256;48.740;9.106;2022-08-19T07:09:43;19.60;99.90
4487;DHT22;2256;48.740;9.106;2022-08-19T07:12:12;19.50;99.90
4487;DHT22;2256;48.740;9.106;2022-08-19T07:14:41;19.50;99.90
4487;DHT22;2256;48.740;9.106;2022-08-19T07:17:10;19.60;99.90
4487;DHT22;2256;48.740;9.106;2022-08-19T07:19:39;19.60;99.90
4487;DHT22;2256;48.740;9.106;2022-08-19T07:22:07;19.70;99.90
4487;DHT22;2256;48.740;9.106;2022-08-19T07:24:34;19.60;99.90
4487;DHT22;2256;48.740;9.106;2022-08-19T07:27:03;19.60;99.90
4487;DHT22;2256;48.740;9.106;2022-08-19T07:29:32;19.60;99.90
4487;DHT22;2256;48.740;9.106;2022-08-19T07:32:00;19.60;99.90
4487;DHT22;2256;48.740;9.106;2022-08-19T07:34:29;19.60;99.90
4487;DHT22;2256;48.740;9.106;2022-08-19T07:36:57;19.50;99.90
4487;DHT22;2256;48.740;9.106;2022-08-19T07:39:27;19.50;99.90
4487;DHT22;2256;48.740;9.106;2022-08-19T07:41:56;19.50;99.90
4487;DHT22;2256;48.740;9.106;2022-08-19T07:44:23;19.50;99.90
4487;DHT22;2256;48.740;9.106;2022-08-19T07:46:52;19.50;99.90
4487;DHT22;2256;48.740;9.106;2022-08-19T07:49:21;19.60;99.90
4487;DHT22;2256;48.740;9.106;2022-08-19T07:51:50;19.60;99.90
4487;DHT22;2256;48.740;9.106;2022-08-19T07:54:20;19.60;99.90
4487;DHT22;2256;48.740;9.106;2022-08-19T07:56:47;19.60;99.90
4487;DHT22;2256;48.740;9.106;2022-08-19T07:59:14;19.60;99.90
4487;DHT22;2256;48.740;9.106;2022-08-19T08:01:43;19.70;99.90
4487;DHT22;2256;48.740;9.106;2022-08-19T08:04:11;19.70;99.90
4487;DHT22;2256;48.740;9.106;2022-08-19T08:06:55;19.80;99.90
4487;DHT22;2256;48.740;9.106;2022-08-19T08:09:43;20.00;99.90
4487;DHT22;2256;48.740;9.106;2022-08-19T08:12:11;19.90;99.90
4487;DHT22;2256;48.740;9.106;2022-08-19T08:14:43;19.80;99.90
4487;DHT22;2256;48.740;9.106;2022-08-19T08:17:12;19.70;99.90
4487;DHT22;2256;48.740;9.106;2022-08-19T08:19:40;19.70;99.90
4487;DHT22;2256;48.740;9.106;2022-08-19T08:22:08;19.60;99.90
4487;DHT22;2256;48.740;9.106;2022-08-19T08:24:56;19.60;99.90
4487;DHT22;2256;48.740;9.106;2022-08-19T08:27:24;19.50;99.90
4487;DHT22;2256;48.740;9.106;2022-08-19T08:29:54;19.50;99.90
4487;DHT22;2256;48.740;9.106;2022-08-19T08:32:21;19.50;99.90
4487;DHT22;2256;48.740;9.106;2022-08-19T08:34:48;19.50;99.90
4487;DHT22;2256;48.740;9.106;2022-08-19T08:37:15;19.60;99.90
4487;DHT22;2256;48.740;9.106;2022-08-19T08:39:41;19.60;99.90
4487;DHT22;2256;48.740;9.106;2022-08-19T08:42:15;19.60;99.90
4487;DHT22;2256;48.740;9.106;2022-08-19T08:44:53;19.60;99.90
4487;DHT22;2256;48.740;9.106;2022-08-19T08:47:25;19.50;99.90
4487;DHT22;2256;48.740;9.106;2022-08-19T08:49:58;19.60;99.90
4487;DHT22;2256;48.740;9.106;2022-08-19T08:52:28;19.70;99.90
4487;DHT22;2256;48.740;9.106;2022-08-19T08:54:59;19.80;99.90
4487;DHT22;2256;48.740;9.106;2022-08-19T08:57:35;19.90;99.90
4487;DHT22;2256;48.740;9.106;2022-08-19T09:00:07;19.90;99.90
4487;DHT22;2256;48.740;9.106;2022-08-19T09:02:34;20.00;99.90
4487;DHT22;2256;48.740;9.106;2022-08-19T09:05:01;20.10;99.90
4487;DHT22;2256;48.740;9.106;2022-08-19T09:07:41;20.20;99.90
4487;DHT22;2256;48.740;9.106;2022-08-19T09:10:14;20.20;99.90
4487;DHT22;2256;48.740;9.106;2022-08-19T09:12:54;20.20;99.90
4487;DHT22;2256;48.740;9.106;2022-08-19T09:15:29;20.30;99.90
4487;DHT22;2256;48.740;9.106;2022-08-19T09:18:00;20.30;99.90
4487;DHT22;2256;48.740;9.106;2022-08-19T09:20:29;20.30;99.90
4487;DHT22;2256;48.740;9.106;2022-08-19T09:22:57;20.30;99.90
4487;DHT22;2256;48.740;9.106;2022-08-19T09:25:25;20.40;99.90
4487;DHT22;2256;48.740;9.106;2022-08-19T09:27:54;20.50;99.90
4487;DHT22;2256;48.740;9.106;2022-08-19T09:30:24;20.50;99.90
4487;DHT22;2256;48.740;9.106;2022-08-19T09:32:51;20.50;99.90
4487;DHT22;2256;48.740;9.106;2022-08-19T09:35:19;20.50;99.90
4487;DHT22;2256;48.740;9.106;2022-08-19T09:37:47;20.50;99.90
4487;DHT22;2256;48.740;9.106;2022-08-19T09:40:15;20.60;99.90
4487;DHT22;2256;48.740;9.106;2022-08-19T09:42:42;20.60;99.90
4487;DHT22;2256;48.740;9.106;2022-08-19T09:45:11;20.70;99.90
4487;DHT22;2256;48.740;9.106;2022-08-19T09:47:38;20.60;99.90
4487;DHT22;2256;48.740;9.106;2022-08-19T09:50:06;20.70;99.90
4487;DHT22;2256;48.740;9.106;2022-08-19T09:52:33;20.80;99.90
4487;DHT22;2256;48.740;9.106;2022-08-19T09:55:02;20.90;99.90
4487;DHT22;2256;48.740;9.106;2022-08-19T09:57:29;21.00;99.90
4487;DHT22;2256;48.740;9.106;2022-08-19T09:59:56;21.00;99.90
4487;DHT22;2256;48.740;9.106;2022-08-19T10:02:24;21.00;99.90
4487;DHT22;2256;48.740;9.106;2022-08-19T10:04:51;21.10;99.90
4487;DHT22;2256;48.740;9.106;2022-08-19T10:07:35;21.10;99.90
4487;DHT22;2256;48.740;9.106;2022-08-19T10:10:02;21.00;99.90
4487;DHT22;2256;48.740;9.106;2022-08-19T10:12:29;21.00;99.90
4487;DHT22;2256;48.740;9.106;2022-08-19T10:14:56;21.00;99.90
4487;DHT22;2256;48.740;9.106;2022-08-19T10:17:24;21.00;99.90
4487;DHT22;2256;48.740;9.106;2022-08-19T10:19:51;21.10;99.90
4487;DHT22;2256;48.740;9.106;2022-08-19T10:22:18;21.00;99.90
4487;DHT22;2256;48.740;9.106;2022-08-19T10:24:45;21.00;99.90
4487;DHT22;2256;48.740;9.106;2022-08-19T10:27:12;21.20;99.90
4487;DHT22;2256;48.740;9.106;2022-08-19T10:29:39;21.10;99.90
4487;DHT22;2256;48.740;9.106;2022-08-19T10:32:07;21.10;99.90
4487;DHT22;2256;48.740;9.106;2022-08-19T10:34:37;21.30;99.90
4487;DHT22;2256;48.740;9.106;2022-08-19T10:37:05;21.20;99.90
4487;DHT22;2256;48.740;9.106;2022-08-19T10:39:33;21.30;99.90
4487;DHT22;2256;48.740;9.106;2022-08-19T10:42:04;21.40;99.90
4487;DHT22;2256;48.740;9.106;2022-08-19T10:44:32;21.50;99.90
4487;DHT22;2256;48.740;9.106;2022-08-19T10:47:01;21.40;99.90
4487;DHT22;2256;48.740;9.106;2022-08-19T10:49:28;21.50;99.90
4487;DHT22;2256;48.740;9.106;2022-08-19T10:51:56;21.50;99.90
4487;DHT22;2256;48.740;9.106;2022-08-19T10:54:41;21.50;99.90
4487;DHT22;2256;48.740;9.106;2022-08-19T10:57:25;21.50;99.90
4487;DHT22;2256;48.740;9.106;2022-08-19T10:59:54;21.50;99.90
4487;DHT22;2256;48.740;9.106;2022-08-19T11:02:21;21.50;99.90
4487;DHT22;2256;48.740;9.106;2022-08-19T11:04:48;21.60;99.90
4487;DHT22;2256;48.740;9.106;2022-08-19T11:07:18;21.60;99.90
4487;DHT22;2256;48.740;9.106;2022-08-19T11:09:46;21.60;99.90
4487;DHT22;2256;48.740;9.106;2022-08-19T11:12:13;21.70;99.90
4487;DHT22;2256;48.740;9.106;2022-08-19T11:14:41;21.80;99.90
4487;DHT22;2256;48.740;9.106;2022-08-19T11:17:07;22.00;99.90
4487;DHT22;2256;48.740;9.106;2022-08-19T11:19:36;22.30;99.90
4487;DHT22;2256;48.740;9.106;2022-08-19T11:22:03;22.30;99.90
4487;DHT22;2256;48.740;9.106;2022-08-19T11:24:31;22.30;99.90
4487;DHT22;2256;48.740;9.106;2022-08-19T11:27:03;22.30;99.90
4487;DHT22;2256;48.740;9.106;2022-08-19T11:29:31;22.40;99.90
4487;DHT22;2256;48.740;9.106;2022-08-19T11:32:00;22.60;99.90
4487;DHT22;2256;48.740;9.106;2022-08-19T11:34:29;22.70;99.90
4487;DHT22;2256;48.740;9.106;2022-08-19T11:36:56;22.70;99.90
4487;DHT22;2256;48.740;9.106;2022-08-19T11:39:26;22.80;99.90
4487;DHT22;2256;48.740;9.106;2022-08-19T11:41:54;22.80;99.90
4487;DHT22;2256;48.740;9.106;2022-08-19T11:44:21;22.90;99.90
4487;DHT22;2256;48.740;9.106;2022-08-19T11:46:48;22.90;99.90
4487;DHT22;2256;48.740;9.106;2022-08-19T11:49:16;22.90;99.90
4487;DHT22;2256;48.740;9.106;2022-08-19T11:51:44;23.00;99.90
4487;DHT22;2256;48.740;9.106;2022-08-19T11:54:13;23.00;99.90
4487;DHT22;2256;48.740;9.106;2022-08-19T11:56:41;23.00;99.90
4487;DHT22;2256;48.740;9.106;2022-08-19T11:59:10;23.00;99.90
4487;DHT22;2256;48.740;9.106;2022-08-19T12:01:36;23.20;99.90
4487;DHT22;2256;48.740;9.106;2022-08-19T12:04:06;23.10;99.90
4487;DHT22;2256;48.740;9.106;2022-08-19T12:06:33;23.30;99.90
4487;DHT22;2256;48.740;9.106;2022-08-19T12:09:05;23.50;99.90
4487;DHT22;2256;48.740;9.106;2022-08-19T12:11:32;23.60;99.90
4487;DHT22;2256;48.740;9.106;2022-08-19T12:14:00;23.50;99.90
4487;DHT22;2256;48.740;9.106;2022-08-19T12:16:29;23.60;99.90
4487;DHT22;2256;48.740;9.106;2022-08-19T12:18:57;23.50;99.90
4487;DHT22;2256;48.740;9.106;2022-08-19T12:21:29;23.40;99.50
4487;DHT22;2256;48.740;9.106;2022-08-19T12:23:58;23.20;99.90
4487;DHT22;2256;48.740;9.106;2022-08-19T12:26:26;23.20;99.90
4487;DHT22;2256;48.740;9.106;2022-08-19T12:28:53;23.20;99.90
4487;DHT22;2256;48.740;9.106;2022-08-19T12:31:20;23.20;99.90
4487;DHT22;2256;48.740;9.106;2022-08-19T12:33:48;23.20;99.90
4487;DHT22;2256;48.740;9.106;2022-08-19T12:36:17;23.30;99.90
4487;DHT22;2256;48.740;9.106;2022-08-19T12:38:44;23.40;99.90
4487;DHT22;2256;48.740;9.106;2022-08-19T12:41:14;23.50;99.60
4487;DHT22;2256;48.740;9.106;2022-08-19T12:43:43;23.50;99.50
4487;DHT22;2256;48.740;9.106;2022-08-19T12:46:10;23.40;99.40
4487;DHT22;2256;48.740;9.106;2022-08-19T12:48:38;23.40;99.00
4487;DHT22;2256;48.740;9.106;2022-08-19T12:51:10;23.30;98.80
4487;DHT22;2256;48.740;9.106;2022-08-19T12:53:37;23.20;99.00
4487;DHT22;2256;48.740;9.106;2022-08-19T12:56:04;23.20;99.10
4487;DHT22;2256;48.740;9.106;2022-08-19T12:58:31;23.10;99.20
4487;DHT22;2256;48.740;9.106;2022-08-19T13:00:59;23.20;99.20
4487;DHT22;2256;48.740;9.106;2022-08-19T13:03:26;23.20;99.30
4487;DHT22;2256;48.740;9.106;2022-08-19T13:05:55;23.10;99.40
4487;DHT22;2256;48.740;9.106;2022-08-19T13:08:23;23.10;99.60
4487;DHT22;2256;48.740;9.106;2022-08-19T13:10:50;23.10;99.60
4487;DHT22;2256;48.740;9.106;2022-08-19T13:13:16;23.00;99.80
4487;DHT22;2256;48.740;9.106;2022-08-19T13:15:43;23.00;99.80
4487;DHT22;2256;48.740;9.106;2022-08-19T13:18:11;23.20;99.80
4487;DHT22;2256;48.740;9.106;2022-08-19T13:20:39;23.20;99.80
4487;DHT22;2256;48.740;9.106;2022-08-19T13:23:06;23.30;99.80
4487;DHT22;2256;48.740;9.106;2022-08-19T13:25:35;23.50;99.90
4487;DHT22;2256;48.740;9.106;2022-08-19T13:28:03;23.60;99.90
4487;DHT22;2256;48.740;9.106;2022-08-19T13:30:31;23.70;99.90
4487;DHT22;2256;48.740;9.106;2022-08-19T13:33:16;23.50;99.90
4487;DHT22;2256;48.740;9.106;2022-08-19T13:35:47;23.30;99.90
4487;DHT22;2256;48.740;9.106;2022-08-19T13:38:15;23.20;99.90
4487;DHT22;2256;48.740;9.106;2022-08-19T13:40:44;23.00;99.90
4487;DHT22;2256;48.740;9.106;2022-08-19T13:43:12;22.90;99.90
4487;DHT22;2256;48.740;9.106;2022-08-19T13:45:39;22.70;99.90
4487;DHT22;2256;48.740;9.106;2022-08-19T13:48:07;22.60;99.90
4487;DHT22;2256;48.740;9.106;2022-08-19T13:50:38;22.60;99.90
4487;DHT22;2256;48.740;9.106;2022-08-19T13:53:06;22.60;99.90
4487;DHT22;2256;48.740;9.106;2022-08-19T13:55:33;22.50;99.90
4487;DHT22;2256;48.740;9.106;2022-08-19T13:58:02;22.30;99.90
4487;DHT22;2256;48.740;9.106;2022-08-19T14:00:31;22.20;99.90
4487;DHT22;2256;48.740;9.106;2022-08-19T14:02:58;22.10;99.90
4487;DHT22;2256;48.740;9.106;2022-08-19T14:05:26;22.10;99.90
4487;DHT22;2256;48.740;9.106;2022-08-19T14:07:54;21.90;99.90
4487;DHT22;2256;48.740;9.106;2022-08-19T14:10:21;21.80;99.90
4487;DHT22;2256;48.740;9.106;2022-08-19T14:12:49;21.80;99.90
4487;DHT22;2256;48.740;9.106;2022-08-19T14:15:17;21.90;99.90
4487;DHT22;2256;48.740;9.106;2022-08-19T14:17:44;21.90;99.90
4487;DHT22;2256;48.740;9.106;2022-08-19T14:20:14;22.00;99.90
4487;DHT22;2256;48.740;9.106;2022-08-19T14:22:42;22.10;99.90
4487;DHT22;2256;48.740;9.106;2022-08-19T14:25:12;22.10;99.90
4487;DHT22;2256;48.740;9.106;2022-08-19T14:27:40;22.20;99.90
4487;DHT22;2256;48.740;9.106;2022-08-19T14:30:09;22.50;99.90
4487;DHT22;2256;48.740;9.106;2022-08-19T14:32:38;22.70;99.90
4487;DHT22;2256;48.740;9.106;2022-08-19T14:35:06;23.00;99.90
4487;DHT22;2256;48.740;9.106;2022-08-19T14:37:33;23.30;99.90
4487;DHT22;2256;48.740;9.106;2022-08-19T14:40:00;23.40;99.90
4487;DHT22;2256;48.740;9.106;2022-08-19T14:42:27;23.40;99.90
4487;DHT22;2256;48.740;9.106;2022-08-19T14:44:57;23.30;99.90
4487;DHT22;2256;48.740;9.106;2022-08-19T14:47:25;23.40;99.90
4487;DHT22;2256;48.740;9.106;2022-08-19T14:49:53;23.50;99.90
4487;DHT22;2256;48.740;9.106;2022-08-19T14:52:20;23.60;99.90
4487;DHT22;2256;48.740;9.106;2022-08-19T14:54:47;23.80;99.90
4487;DHT22;2256;48.740;9.106;2022-08-19T14:57:14;23.70;99.90
4487;DHT22;2256;48.740;9.106;2022-08-19T14:59:41;23.70;99.90
4487;DHT22;2256;48.740;9.106;2022-08-19T15:02:08;23.60;99.90
4487;DHT22;2256;48.740;9.106;2022-08-19T15:04:35;23.40;99.90
4487;DHT22;2256;48.740;9.106;2022-08-19T15:07:03;23.30;99.90
4487;DHT22;2256;48.740;9.106;2022-08-19T15:09:30;23.30;99.90
4487;DHT22;2256;48.740;9.106;2022-08-19T15:11:57;23.10;99.90
4487;DHT22;2256;48.740;9.106;2022-08-19T15:14:24;23.10;99.90
4487;DHT22;2256;48.740;9.106;2022-08-19T15:16:51;23.20;99.90
4487;DHT22;2256;48.740;9.106;2022-08-19T15:19:18;23.30;99.90
4487;DHT22;2256;48.740;9.106;2022-08-19T15:21:45;23.50;99.90
4487;DHT22;2256;48.740;9.106;2022-08-19T15:24:14;23.60;99.90
4487;DHT22;2256;48.740;9.106;2022-08-19T15:26:43;23.80;99.90
4487;DHT22;2256;48.740;9.106;2022-08-19T15:29:09;24.00;99.90
4487;DHT22;2256;48.740;9.106;2022-08-19T15:31:38;24.00;99.90
4487;DHT22;2256;48.740;9.106;2022-08-19T15:34:05;24.10;99.90
4487;DHT22;2256;48.740;9.106;2022-08-19T15:36:32;24.10;99.90
4487;DHT22;2256;48.740;9.106;2022-08-19T15:39:00;24.20;99.90
4487;DHT22;2256;48.740;9.106;2022-08-19T15:41:29;24.30;99.90
4487;DHT22;2256;48.740;9.106;2022-08-19T15:43:59;24.40;99.90
4487;DHT22;2256;48.740;9.106;2022-08-19T15:46:30;24.50;99.90
4487;DHT22;2256;48.740;9.106;2022-08-19T15:48:58;24.60;99.90
4487;DHT22;2256;48.740;9.106;2022-08-19T15:51:26;24.60;99.90
4487;DHT22;2256;48.740;9.106;2022-08-19T15:53:55;24.80;99.90
4487;DHT22;2256;48.740;9.106;2022-08-19T15:56:22;24.70;99.90
4487;DHT22;2256;48.740;9.106;2022-08-19T15:58:50;24.70;99.90
4487;DHT22;2256;48.740;9.106;2022-08-19T16:01:35;24.50;99.90
4487;DHT22;2256;48.740;9.106;2022-08-19T16:04:19;24.40;99.90
4487;DHT22;2256;48.740;9.106;2022-08-19T16:07:03;24.30;99.90
4487;DHT22;2256;48.740;9.106;2022-08-19T16:09:32;24.40;99.90
4487;DHT22;2256;48.740;9.106;2022-08-19T16:12:02;24.50;93.50